sensor_id;sensor_type;location;lat;lon;timestamp;P1;durP1;ratioP1;P2;durP2;ratioP2
10096;SDS011;5087;42.662;23.466;2022-10-16T00:00:43;0.80;;;0.80;;
10096;SDS011;5087;42.662;23.466;2022-10-16T00:03:11;1.10;;;1.10;;
10096;SDS011;5087;42.662;23.466;2022-10-16T00:05:38;1.10;;;1.10;;
10096;SDS011;5087;42.662;23.466;2022-10-16T00:08:07;0.90;;;0.90;;
10096;SDS011;5087;42.662;23.466;2022-10-16T00:10:35;1.10;;;1.10;;
10096;SDS011;5087;42.662;23.466;2022-10-16T00:13:03;0.73;;;0.73;;
10096;SDS011;5087;42.662;23.466;2022-10-16T00:15:34;0.87;;;0.87;;
10096;SDS011;5087;42.662;23.466;2022-10-16T00:18:02;0.90;;;0.90;;
10096;SDS011;5087;42.662;23.466;2022-10-16T00:20:30;0.90;;;0.90;;
10096;SDS011;5087;42.662;23.466;2022-10-16T00:23:02;0.60;;;0.60;;
10096;SDS011;5087;42.662;23.466;2022-10-16T00:25:30;0.60;;;0.60;;
10096;SDS011;5087;42.662;23.466;2022-10-16T00:27:59;0.50;;;0.50;;
10096;SDS011;5087;42.662;23.466;2022-10-16T00:30:26;0.40;;;0.40;;
10096;SDS011;5087;42.662;23.466;2022-10-16T00:32:55;0.40;;;0.40;;
10096;SDS011;5087;42.662;23.466;2022-10-16T00:35:23;0.50;;;0.50;;
10096;SDS011;5087;42.662;23.466;2022-10-16T00:37:50;0.40;;;0.40;;
10096;SDS011;5087;42.662;23.466;2022-10-16T00:40:17;0.60;;;0.60;;
10096;SDS011;5087;42.662;23.466;2022-10-16T00:42:44;0.60;;;0.60;;
10096;SDS011;5087;42.662;23.466;2022-10-16T00:45:12;0.60;;;0.60;;
10096;SDS011;5087;42.662;23.466;2022-10-16T00:47:40;0.33;;;0.33;;
10096;SDS011;5087;42.662;23.466;2022-10-16T00:50:16;0.40;;;0.40;;
10096;SDS011;5087;42.662;23.466;2022-10-16T00:52:48;0.50;;;0.50;;
10096;SDS011;5087;42.662;23.466;2022-10-16T00:55:17;0.30;;;0.30;;
10096;SDS011;5087;42.662;23.466;2022-10-16T00:57:45;0.30;;;0.30;;
10096;SDS011;5087;42.662;23.466;2022-10-16T01:00:14;0.50;;;0.50;;
10096;SDS011;5087;42.662;23.466;2022-10-16T01:02:43;0.40;;;0.40;;
10096;SDS011;5087;42.662;23.466;2022-10-16T01:05:10;0.30;;;0.30;;
10096;SDS011;5087;42.662;23.466;2022-10-16T01:07:42;0.40;;;0.40;;
10096;SDS011;5087;42.662;23.466;2022-10-16T01:10:20;0.40;;;0.40;;
10096;SDS011;5087;42.662;23.466;2022-10-16T01:12:55;0.20;;;0.20;;
10096;SDS011;5087;42.662;23.466;2022-10-16T01:15:26;0.20;;;0.20;;
10096;SDS011;5087;42.662;23.466;2022-10-16T01:17:58;0.50;;;0.50;;
10096;SDS011;5087;42.662;23.466;2022-10-16T01:20:33;0.40;;;0.40;;
10096;SDS011;5087;42.662;23.466;2022-10-16T01:23:09;0.43;;;0.43;;
10096;SDS011;5087;42.662;23.466;2022-10-16T01:25:53;0.50;;;0.50;;
10096;SDS011;5087;42.662;23.466;2022-10-16T01:28:36;0.40;;;0.40;;
10096;SDS011;5087;42.662;23.466;2022-10-16T01:31:07;0.30;;;0.30;;
10096;SDS011;5087;42.662;23.466;2022-10-16T01:33:39;0.50;;;0.50;;
10096;SDS011;5087;42.662;23.466;2022-10-16T01:36:10;0.50;;;0.50;;
10096;SDS011;5087;42.662;23.466;2022-10-16T01:38:40;0.30;;;0.30;;
10096;SDS011;5087;42.662;23.466;2022-10-16T01:41:14;0.30;;;0.30;;
10096;SDS011;5087;42.662;23.466;2022-10-16T01:43:48;0.60;;;0.60;;
10096;SDS011;5087;42.662;23.466;2022-10-16T01:46:20;0.30;;;0.30;;
10096;SDS011;5087;42.662;23.466;2022-10-16T01:48:49;0.20;;;0.20;;
10096;SDS011;5087;42.662;23.466;2022-10-16T01:51:18;0.40;;;0.40;;
10096;SDS011;5087;42.662;23.466;2022-10-16T01:53:48;0.30;;;0.30;;
10096;SDS011;5087;42.662;23.466;2022-10-16T01:56:19;0.97;;;0.97;;
10096;SDS011;5087;42.662;23.466;2022-10-16T01:58:50;0.20;;;0.20;;
10096;SDS011;5087;42.662;23.466;2022-10-16T02:01:23;0.40;;;0.40;;
10096;SDS011;5087;42.662;23.466;2022-10-16T02:03:55;0.23;;;0.23;;
10096;SDS011;5087;42.662;23.466;2022-10-16T02:06:26;0.20;;;0.20;;
10096;SDS011;5087;42.662;23.466;2022-10-16T02:08:54;0.30;;;0.30;;
10096;SDS011;5087;42.662;23.466;2022-10-16T02:11:22;0.27;;;0.27;;
10096;SDS011;5087;42.662;23.466;2022-10-16T02:13:53;0.10;;;0.10;;
10096;SDS011;5087;42.662;23.466;2022-10-16T02:16:32;0.53;;;0.53;;
10096;SDS011;5087;42.662;23.466;2022-10-16T02:19:00;0.20;;;0.20;;
10096;SDS011;5087;42.662;23.466;2022-10-16T02:21:28;0.10;;;0.10;;
10096;SDS011;5087;42.662;23.466;2022-10-16T02:24:00;0.00;;;0.00;;
10096;SDS011;5087;42.662;23.466;2022-10-16T02:26:34;0.20;;;0.20;;
10096;SDS011;5087;42.662;23.466;2022-10-16T02:29:06;0.10;;;0.10;;
10096;SDS011;5087;42.662;23.466;2022-10-16T02:31:39;0.10;;;0.10;;
10096;SDS011;5087;42.662;23.466;2022-10-16T02:34:10;0.20;;;0.20;;
10096;SDS011;5087;42.662;23.466;2022-10-16T02:36:39;0.10;;;0.10;;
10096;SDS011;5087;42.662;23.466;2022-10-16T02:39:07;0.00;;;0.00;;
10096;SDS011;5087;42.662;23.466;2022-10-16T02:41:35;0.00;;;0.00;;
10096;SDS011;5087;42.662;23.466;2022-10-16T02:44:03;0.20;;;0.20;;
10096;SDS011;5087;42.662;23.466;2022-10-16T02:46:31;0.20;;;0.20;;
10096;SDS011;5087;42.662;23.466;2022-10-16T02:48:59;0.30;;;0.30;;
10096;SDS011;5087;42.662;23.466;2022-10-16T02:51:26;0.10;;;0.10;;
10096;SDS011;5087;42.662;23.466;2022-10-16T02:53:53;0.20;;;0.20;;
10096;SDS011;5087;42.662;23.466;2022-10-16T02:56:21;0.20;;;0.20;;
10096;SDS011;5087;42.662;23.466;2022-10-16T02:58:49;0.20;;;0.20;;
10096;SDS011;5087;42.662;23.466;2022-10-16T03:01:16;0.37;;;0.37;;
10096;SDS011;5087;42.662;23.466;2022-10-16T03:03:45;0.10;;;0.10;;
10096;SDS011;5087;42.662;23.466;2022-10-16T03:06:12;0.10;;;0.10;;
10096;SDS011;5087;42.662;23.466;2022-10-16T03:08:39;0.00;;;0.00;;
10096;SDS011;5087;42.662;23.466;2022-10-16T03:11:06;0.10;;;0.10;;
10096;SDS011;5087;42.662;23.466;2022-10-16T03:13:34;0.10;;;0.10;;
10096;SDS011;5087;42.662;23.466;2022-10-16T03:16:01;0.20;;;0.20;;
10096;SDS011;5087;42.662;23.466;2022-10-16T03:18:28;0.10;;;0.10;;
10096;SDS011;5087;42.662;23.466;2022-10-16T03:20:57;0.13;;;0.13;;
10096;SDS011;5087;42.662;23.466;2022-10-16T03:23:24;0.97;;;0.97;;
10096;SDS011;5087;42.662;23.466;2022-10-16T03:25:51;0.20;;;0.20;;
10096;SDS011;5087;42.662;23.466;2022-10-16T03:28:19;0.20;;;0.20;;
10096;SDS011;5087;42.662;23.466;2022-10-16T03:30:46;0.20;;;0.20;;
10096;SDS011;5087;42.662;23.466;2022-10-16T03:33:13;0.10;;;0.10;;
10096;SDS011;5087;42.662;23.466;2022-10-16T03:35:40;0.10;;;0.10;;
10096;SDS011;5087;42.662;23.466;2022-10-16T03:38:09;0.20;;;0.20;;
10096;SDS011;5087;42.662;23.466;2022-10-16T03:40:36;0.20;;;0.20;;
10096;SDS011;5087;42.662;23.466;2022-10-16T03:43:03;0.20;;;0.20;;
10096;SDS011;5087;42.662;23.466;2022-10-16T03:45:30;0.10;;;0.10;;
10096;SDS011;5087;42.662;23.466;2022-10-16T03:47:57;0.20;;;0.20;;
10096;SDS011;5087;42.662;23.466;2022-10-16T03:50:29;0.30;;;0.30;;
10096;SDS011;5087;42.662;23.466;2022-10-16T03:52:56;0.10;;;0.10;;
10096;SDS011;5087;42.662;23.466;2022-10-16T03:55:25;0.10;;;0.10;;
10096;SDS011;5087;42.662;23.466;2022-10-16T03:57:52;0.20;;;0.20;;
10096;SDS011;5087;42.662;23.466;2022-10-16T04:00:19;0.20;;;0.20;;
10096;SDS011;5087;42.662;23.466;2022-10-16T04:02:47;0.10;;;0.10;;
10096;SDS011;5087;42.662;23.466;2022-10-16T04:05:14;0.30;;;0.30;;
10096;SDS011;5087;42.662;23.466;2022-10-16T04:07:41;0.93;;;0.93;;
10096;SDS011;5087;42.662;23.466;2022-10-16T04:10:09;0.20;;;0.20;;
10096;SDS011;5087;42.662;23.466;2022-10-16T04:12:37;0.10;;;0.10;;
10096;SDS011;5087;42.662;23.466;2022-10-16T04:15:06;0.10;;;0.10;;
10096;SDS011;5087;42.662;23.466;2022-10-16T04:17:34;0.00;;;0.00;;
10096;SDS011;5087;42.662;23.466;2022-10-16T04:20:01;0.00;;;0.00;;
10096;SDS011;5087;42.662;23.466;2022-10-16T04:22:28;0.10;;;0.10;;
10096;SDS011;5087;42.662;23.466;2022-10-16T04:24:56;0.33;;;0.33;;
10096;SDS011;5087;42.662;23.466;2022-10-16T04:27:23;0.00;;;0.00;;
10096;SDS011;5087;42.662;23.466;2022-10-16T04:29:52;0.00;;;0.00;;
10096;SDS011;5087;42.662;23.466;2022-10-16T04:32:19;0.00;;;0.00;;
10096;SDS011;5087;42.662;23.466;2022-10-16T04:34:46;0.00;;;0.00;;
10096;SDS011;5087;42.662;23.466;2022-10-16T04:37:13;0.00;;;0.00;;
10096;SDS011;5087;42.662;23.466;2022-10-16T04:39:40;0.00;;;0.00;;
10096;SDS011;5087;42.662;23.466;2022-10-16T04:42:07;0.10;;;0.10;;
10096;SDS011;5087;42.662;23.466;2022-10-16T04:44:34;0.10;;;0.10;;
10096;SDS011;5087;42.662;23.466;2022-10-16T04:47:03;0.10;;;0.10;;
10096;SDS011;5087;42.662;23.466;2022-10-16T04:49:30;0.10;;;0.10;;
10096;SDS011;5087;42.662;23.466;2022-10-16T04:51:57;0.00;;;0.00;;
10096;SDS011;5087;42.662;23.466;2022-10-16T04:54:24;0.10;;;0.10;;
10096;SDS011;5087;42.662;23.466;2022-10-16T04:56:51;0.00;;;0.00;;
10096;SDS011;5087;42.662;23.466;2022-10-16T04:59:19;0.00;;;0.00;;
10096;SDS011;5087;42.662;23.466;2022-10-16T05:01:48;0.00;;;0.00;;
10096;SDS011;5087;42.662;23.466;2022-10-16T05:04:17;0.00;;;0.00;;
10096;SDS011;5087;42.662;23.466;2022-10-16T05:06:44;0.00;;;0.00;;
10096;SDS011;5087;42.662;23.466;2022-10-16T05:09:11;0.10;;;0.10;;
10096;SDS011;5087;42.662;23.466;2022-10-16T05:11:38;0.00;;;0.00;;
10096;SDS011;5087;42.662;23.466;2022-10-16T05:14:06;0.00;;;0.00;;
10096;SDS011;5087;42.662;23.466;2022-10-16T05:16:33;0.00;;;0.00;;
10096;SDS011;5087;42.662;23.466;2022-10-16T05:19:00;0.00;;;0.00;;
10096;SDS011;5087;42.662;23.466;2022-10-16T05:21:29;0.00;;;0.00;;
10096;SDS011;5087;42.662;23.466;2022-10-16T05:23:56;0.00;;;0.00;;
10096;SDS011;5087;42.662;23.466;2022-10-16T05:26:23;0.00;;;0.00;;
10096;SDS011;5087;42.662;23.466;2022-10-16T05:28:50;0.00;;;0.00;;
10096;SDS011;5087;42.662;23.466;2022-10-16T05:31:17;0.00;;;0.00;;
10096;SDS011;5087;42.662;23.466;2022-10-16T05:33:45;0.00;;;0.00;;
10096;SDS011;5087;42.662;23.466;2022-10-16T05:36:12;0.00;;;0.00;;
10096;SDS011;5087;42.662;23.466;2022-10-16T05:38:40;0.00;;;0.00;;
10096;SDS011;5087;42.662;23.466;2022-10-16T05:41:07;0.10;;;0.10;;
10096;SDS011;5087;42.662;23.466;2022-10-16T05:43:36;0.10;;;0.10;;
10096;SDS011;5087;42.662;23.466;2022-10-16T05:46:04;0.20;;;0.20;;
10096;SDS011;5087;42.662;23.466;2022-10-16T05:48:32;0.20;;;0.20;;
10096;SDS011;5087;42.662;23.466;2022-10-16T05:51:00;0.20;;;0.20;;
10096;SDS011;5087;42.662;23.466;2022-10-16T05:53:29;0.30;;;0.30;;
10096;SDS011;5087;42.662;23.466;2022-10-16T05:55:59;0.40;;;0.40;;
10096;SDS011;5087;42.662;23.466;2022-10-16T05:58:30;0.30;;;0.30;;
10096;SDS011;5087;42.662;23.466;2022-10-16T06:00:59;0.40;;;0.40;;
10096;SDS011;5087;42.662;23.466;2022-10-16T06:03:28;0.70;;;0.70;;
10096;SDS011;5087;42.662;23.466;2022-10-16T06:05:55;0.70;;;0.70;;
10096;SDS011;5087;42.662;23.466;2022-10-16T06:08:25;0.60;;;0.60;;
10096;SDS011;5087;42.662;23.466;2022-10-16T06:11:01;0.40;;;0.40;;
10096;SDS011;5087;42.662;23.466;2022-10-16T06:13:31;0.70;;;0.70;;
10096;SDS011;5087;42.662;23.466;2022-10-16T06:15:58;0.73;;;0.73;;
10096;SDS011;5087;42.662;23.466;2022-10-16T06:18:26;1.00;;;1.00;;
10096;SDS011;5087;42.662;23.466;2022-10-16T06:20:58;0.80;;;0.80;;
10096;SDS011;5087;42.662;23.466;2022-10-16T06:23:25;0.90;;;0.90;;
10096;SDS011;5087;42.662;23.466;2022-10-16T06:25:55;0.80;;;0.80;;
10096;SDS011;5087;42.662;23.466;2022-10-16T06:28:32;0.80;;;0.80;;
10096;SDS011;5087;42.662;23.466;2022-10-16T06:31:00;0.80;;;0.80;;
10096;SDS011;5087;42.662;23.466;2022-10-16T06:33:27;0.70;;;0.70;;
10096;SDS011;5087;42.662;23.466;2022-10-16T06:35:59;1.00;;;1.00;;
10096;SDS011;5087;42.662;23.466;2022-10-16T06:38:28;1.10;;;1.10;;
10096;SDS011;5087;42.662;23.466;2022-10-16T06:40:55;1.20;;;1.20;;
10096;SDS011;5087;42.662;23.466;2022-10-16T06:43:24;1.60;;;1.60;;
10096;SDS011;5087;42.662;23.466;2022-10-16T06:45:52;1.80;;;1.80;;
10096;SDS011;5087;42.662;23.466;2022-10-16T06:48:19;2.07;;;2.07;;
10096;SDS011;5087;42.662;23.466;2022-10-16T06:50:54;2.20;;;2.20;;
10096;SDS011;5087;42.662;23.466;2022-10-16T06:53:26;2.40;;;2.40;;
10096;SDS011;5087;42.662;23.466;2022-10-16T06:55:54;2.50;;;2.50;;
10096;SDS011;5087;42.662;23.466;2022-10-16T06:58:26;2.90;;;2.90;;
10096;SDS011;5087;42.662;23.466;2022-10-16T07:00:54;3.33;;;3.33;;
10096;SDS011;5087;42.662;23.466;2022-10-16T07:03:23;3.30;;;3.30;;
10096;SDS011;5087;42.662;23.466;2022-10-16T07:05:50;3.20;;;3.20;;
10096;SDS011;5087;42.662;23.466;2022-10-16T07:08:17;2.80;;;2.80;;
10096;SDS011;5087;42.662;23.466;2022-10-16T07:10:45;3.20;;;3.20;;
10096;SDS011;5087;42.662;23.466;2022-10-16T07:13:12;3.03;;;3.03;;
10096;SDS011;5087;42.662;23.466;2022-10-16T07:15:41;3.07;;;3.07;;
10096;SDS011;5087;42.662;23.466;2022-10-16T07:18:08;3.40;;;3.40;;
10096;SDS011;5087;42.662;23.466;2022-10-16T07:20:35;3.30;;;3.30;;
10096;SDS011;5087;42.662;23.466;2022-10-16T07:23:03;3.37;;;3.37;;
10096;SDS011;5087;42.662;23.466;2022-10-16T07:25:30;3.17;;;3.17;;
10096;SDS011;5087;42.662;23.466;2022-10-16T07:27:57;3.50;;;3.50;;
10096;SDS011;5087;42.662;23.466;2022-10-16T07:30:24;3.63;;;3.63;;
10096;SDS011;5087;42.662;23.466;2022-10-16T07:32:52;3.60;;;3.60;;
10096;SDS011;5087;42.662;23.466;2022-10-16T07:35:20;3.73;;;3.73;;
10096;SDS011;5087;42.662;23.466;2022-10-16T07:37:47;4.07;;;3.97;;
10096;SDS011;5087;42.662;23.466;2022-10-16T07:40:14;4.07;;;3.97;;
10096;SDS011;5087;42.662;23.466;2022-10-16T07:42:41;4.47;;;4.37;;
10096;SDS011;5087;42.662;23.466;2022-10-16T07:45:09;4.27;;;4.17;;
10096;SDS011;5087;42.662;23.466;2022-10-16T07:47:36;4.50;;;4.40;;
10096;SDS011;5087;42.662;23.466;2022-10-16T07:50:05;4.40;;;4.30;;
10096;SDS011;5087;42.662;23.466;2022-10-16T07:52:32;4.67;;;4.57;;
10096;SDS011;5087;42.662;23.466;2022-10-16T07:55:00;3.97;;;3.90;;
10096;SDS011;5087;42.662;23.466;2022-10-16T07:57:27;3.57;;;3.57;;
10096;SDS011;5087;42.662;23.466;2022-10-16T07:59:54;3.90;;;3.90;;
10096;SDS011;5087;42.662;23.466;2022-10-16T08:02:24;3.80;;;3.80;;
10096;SDS011;5087;42.662;23.466;2022-10-16T08:04:51;4.23;;;4.13;;
10096;SDS011;5087;42.662;23.466;2022-10-16T08:07:19;4.03;;;3.93;;
10096;SDS011;5087;42.662;23.466;2022-10-16T08:09:48;4.60;;;4.50;;
10096;SDS011;5087;42.662;23.466;2022-10-16T08:12:17;4.20;;;4.10;;
10096;SDS011;5087;42.662;23.466;2022-10-16T08:14:44;4.40;;;4.30;;
10096;SDS011;5087;42.662;23.466;2022-10-16T08:17:13;4.47;;;4.37;;
10096;SDS011;5087;42.662;23.466;2022-10-16T08:19:46;4.60;;;4.50;;
10096;SDS011;5087;42.662;23.466;2022-10-16T08:22:14;4.17;;;4.07;;
10096;SDS011;5087;42.662;23.466;2022-10-16T08:24:42;4.30;;;4.20;;
10096;SDS011;5087;42.662;23.466;2022-10-16T08:27:09;4.10;;;4.00;;
10096;SDS011;5087;42.662;23.466;2022-10-16T08:29:37;4.10;;;4.00;;
10096;SDS011;5087;42.662;23.466;2022-10-16T08:32:04;4.20;;;4.10;;
10096;SDS011;5087;42.662;23.466;2022-10-16T08:34:31;4.10;;;4.00;;
10096;SDS011;5087;42.662;23.466;2022-10-16T08:36:58;3.97;;;3.93;;
10096;SDS011;5087;42.662;23.466;2022-10-16T08:39:25;3.70;;;3.70;;
10096;SDS011;5087;42.662;23.466;2022-10-16T08:42:06;3.70;;;3.70;;
10096;SDS011;5087;42.662;23.466;2022-10-16T08:44:48;3.70;;;3.70;;
10096;SDS011;5087;42.662;23.466;2022-10-16T08:47:35;3.70;;;3.70;;
10096;SDS011;5087;42.662;23.466;2022-10-16T08:50:12;3.80;;;3.80;;
10096;SDS011;5087;42.662;23.466;2022-10-16T08:52:41;3.80;;;3.80;;
10096;SDS011;5087;42.662;23.466;2022-10-16T08:55:17;4.20;;;4.10;;
10096;SDS011;5087;42.662;23.466;2022-10-16T08:58:00;4.20;;;4.10;;
10096;SDS011;5087;42.662;23.466;2022-10-16T09:00:27;4.10;;;4.00;;
10096;SDS011;5087;42.662;23.466;2022-10-16T09:03:02;3.50;;;3.50;;
10096;SDS011;5087;42.662;23.466;2022-10-16T09:05:41;3.80;;;3.80;;
10096;SDS011;5087;42.662;23.466;2022-10-16T09:08:20;3.20;;;3.20;;
10096;SDS011;5087;42.662;23.466;2022-10-16T09:10:59;3.90;;;3.90;;
10096;SDS011;5087;42.662;23.466;2022-10-16T09:13:34;4.10;;;4.00;;
10096;SDS011;5087;42.662;23.466;2022-10-16T09:16:12;3.80;;;3.80;;
10096;SDS011;5087;42.662;23.466;2022-10-16T09:18:44;3.50;;;3.50;;
10096;SDS011;5087;42.662;23.466;2022-10-16T09:21:16;3.60;;;3.60;;
10096;SDS011;5087;42.662;23.466;2022-10-16T09:23:47;3.93;;;3.83;;
10096;SDS011;5087;42.662;23.466;2022-10-16T09:26:14;3.30;;;3.30;;
10096;SDS011;5087;42.662;23.466;2022-10-16T09:28:46;3.40;;;3.40;;
10096;SDS011;5087;42.662;23.466;2022-10-16T09:31:15;2.73;;;2.73;;
10096;SDS011;5087;42.662;23.466;2022-10-16T09:33:47;3.40;;;3.40;;
10096;SDS011;5087;42.662;23.466;2022-10-16T09:36:17;3.40;;;3.40;;
10096;SDS011;5087;42.662;23.466;2022-10-16T09:38:45;3.00;;;3.00;;
10096;SDS011;5087;42.662;23.466;2022-10-16T09:41:14;3.00;;;3.00;;
10096;SDS011;5087;42.662;23.466;2022-10-16T09:43:48;3.37;;;3.37;;
10096;SDS011;5087;42.662;23.466;2022-10-16T09:46:21;3.10;;;3.10;;
10096;SDS011;5087;42.662;23.466;2022-10-16T09:48:53;2.53;;;2.53;;
10096;SDS011;5087;42.662;23.466;2022-10-16T09:51:26;2.60;;;2.60;;
10096;SDS011;5087;42.662;23.466;2022-10-16T09:53:55;1.93;;;1.93;;
10096;SDS011;5087;42.662;23.466;2022-10-16T09:56:27;1.90;;;1.90;;
10096;SDS011;5087;42.662;23.466;2022-10-16T09:58:59;2.20;;;2.20;;
10096;SDS011;5087;42.662;23.466;2022-10-16T10:01:29;2.20;;;2.20;;
10096;SDS011;5087;42.662;23.466;2022-10-16T10:04:01;2.10;;;2.10;;
10096;SDS011;5087;42.662;23.466;2022-10-16T10:06:29;2.13;;;2.13;;
10096;SDS011;5087;42.662;23.466;2022-10-16T10:09:02;2.10;;;2.10;;
10096;SDS011;5087;42.662;23.466;2022-10-16T10:11:42;1.83;;;1.83;;
10096;SDS011;5087;42.662;23.466;2022-10-16T10:17:06;1.70;;;1.70;;
10096;SDS011;5087;42.662;23.466;2022-10-16T10:19:38;1.60;;;1.60;;
10096;SDS011;5087;42.662;23.466;2022-10-16T10:22:13;1.47;;;1.47;;
10096;SDS011;5087;42.662;23.466;2022-10-16T10:24:44;1.50;;;1.50;;
10096;SDS011;5087;42.662;23.466;2022-10-16T10:27:12;1.40;;;1.40;;
10096;SDS011;5087;42.662;23.466;2022-10-16T10:29:48;1.60;;;1.60;;
10096;SDS011;5087;42.662;23.466;2022-10-16T10:32:26;1.80;;;1.80;;
10096;SDS011;5087;42.662;23.466;2022-10-16T10:35:07;1.40;;;1.40;;
10096;SDS011;5087;42.662;23.466;2022-10-16T10:37:46;1.47;;;1.47;;
10096;SDS011;5087;42.662;23.466;2022-10-16T10:40:28;1.40;;;1.40;;
10096;SDS011;5087;42.662;23.466;2022-10-16T10:43:04;1.50;;;1.50;;
10096;SDS011;5087;42.662;23.466;2022-10-16T10:45:43;1.40;;;1.40;;
10096;SDS011;5087;42.662;23.466;2022-10-16T10:48:28;1.50;;;1.50;;
10096;SDS011;5087;42.662;23.466;2022-10-16T10:51:22;1.43;;;1.43;;
10096;SDS011;5087;42.662;23.466;2022-10-16T10:54:01;1.50;;;1.50;;
10096;SDS011;5087;42.662;23.466;2022-10-16T10:56:42;1.67;;;1.67;;
10096;SDS011;5087;42.662;23.466;2022-10-16T10:59:21;2.00;;;2.00;;
10096;SDS011;5087;42.662;23.466;2022-10-16T11:02:21;1.80;;;1.80;;
10096;SDS011;5087;42.662;23.466;2022-10-16T11:04:56;2.10;;;2.10;;
10096;SDS011;5087;42.662;23.466;2022-10-16T11:07:36;1.80;;;1.80;;
10096;SDS011;5087;42.662;23.466;2022-10-16T11:10:12;1.80;;;1.80;;
10096;SDS011;5087;42.662;23.466;2022-10-16T11:12:42;1.70;;;1.70;;
10096;SDS011;5087;42.662;23.466;2022-10-16T11:15:12;1.60;;;1.60;;
10096;SDS011;5087;42.662;23.466;2022-10-16T11:17:46;2.40;;;2.20;;
10096;SDS011;5087;42.662;23.466;2022-10-16T11:20:24;2.00;;;2.00;;
10096;SDS011;5087;42.662;23.466;2022-10-16T11:22:55;1.90;;;1.90;;
10096;SDS011;5087;42.662;23.466;2022-10-16T11:25:26;2.00;;;2.00;;
10096;SDS011;5087;42.662;23.466;2022-10-16T11:27:57;1.60;;;1.60;;
10096;SDS011;5087;42.662;23.466;2022-10-16T11:30:29;1.90;;;1.80;;
10096;SDS011;5087;42.662;23.466;2022-10-16T11:33:03;2.00;;;2.00;;
10096;SDS011;5087;42.662;23.466;2022-10-16T11:35:38;1.40;;;1.40;;
10096;SDS011;5087;42.662;23.466;2022-10-16T11:38:10;1.40;;;1.40;;
10096;SDS011;5087;42.662;23.466;2022-10-16T11:40:42;1.70;;;1.70;;
10096;SDS011;5087;42.662;23.466;2022-10-16T11:43:15;1.50;;;1.50;;
10096;SDS011;5087;42.662;23.466;2022-10-16T11:45:48;1.50;;;1.50;;
10096;SDS011;5087;42.662;23.466;2022-10-16T11:48:21;1.80;;;1.80;;
10096;SDS011;5087;42.662;23.466;2022-10-16T11:50:53;1.60;;;1.60;;
10096;SDS011;5087;42.662;23.466;2022-10-16T11:53:31;1.70;;;1.70;;
10096;SDS011;5087;42.662;23.466;2022-10-16T11:56:11;1.60;;;1.60;;
10096;SDS011;5087;42.662;23.466;2022-10-16T11:58:41;1.50;;;1.50;;
10096;SDS011;5087;42.662;23.466;2022-10-16T12:01:18;1.60;;;1.60;;
10096;SDS011;5087;42.662;23.466;2022-10-16T12:04:02;1.70;;;1.70;;
10096;SDS011;5087;42.662;23.466;2022-10-16T12:06:42;1.83;;;1.83;;
10096;SDS011;5087;42.662;23.466;2022-10-16T12:09:15;1.50;;;1.50;;
10096;SDS011;5087;42.662;23.466;2022-10-16T12:11:47;1.60;;;1.60;;
10096;SDS011;5087;42.662;23.466;2022-10-16T12:14:19;1.60;;;1.60;;
10096;SDS011;5087;42.662;23.466;2022-10-16T12:17:01;1.50;;;1.50;;
10096;SDS011;5087;42.662;23.466;2022-10-16T12:19:32;1.53;;;1.53;;
10096;SDS011;5087;42.662;23.466;2022-10-16T12:22:00;1.70;;;1.70;;
10096;SDS011;5087;42.662;23.466;2022-10-16T12:24:33;1.40;;;1.40;;
10096;SDS011;5087;42.662;23.466;2022-10-16T12:27:02;1.40;;;1.40;;
10096;SDS011;5087;42.662;23.466;2022-10-16T12:29:32;1.50;;;1.50;;
10096;SDS011;5087;42.662;23.466;2022-10-16T12:32:03;1.70;;;1.70;;
10096;SDS011;5087;42.662;23.466;2022-10-16T12:34:37;1.50;;;1.50;;
10096;SDS011;5087;42.662;23.466;2022-10-16T12:37:19;1.60;;;1.60;;
10096;SDS011;5087;42.662;23.466;2022-10-16T12:39:50;1.60;;;1.60;;
10096;SDS011;5087;42.662;23.466;2022-10-16T12:42:19;1.53;;;1.53;;
10096;SDS011;5087;42.662;23.466;2022-10-16T12:44:58;1.57;;;1.57;;
10096;SDS011;5087;42.662;23.466;2022-10-16T12:47:35;1.90;;;1.90;;
10096;SDS011;5087;42.662;23.466;2022-10-16T12:52:59;1.40;;;1.40;;
10096;SDS011;5087;42.662;23.466;2022-10-16T12:55:31;1.80;;;1.80;;
10096;SDS011;5087;42.662;23.466;2022-10-16T12:58:12;1.50;;;1.50;;
10096;SDS011;5087;42.662;23.466;2022-10-16T13:00:53;1.70;;;1.70;;
10096;SDS011;5087;42.662;23.466;2022-10-16T13:03:45;1.43;;;1.43;;
10096;SDS011;5087;42.662;23.466;2022-10-16T13:06:33;1.40;;;1.40;;
10096;SDS011;5087;42.662;23.466;2022-10-16T13:12:22;1.40;;;1.40;;
10096;SDS011;5087;42.662;23.466;2022-10-16T13:17:59;1.50;;;1.50;;
10096;SDS011;5087;42.662;23.466;2022-10-16T13:20:35;1.70;;;1.70;;
10096;SDS011;5087;42.662;23.466;2022-10-16T13:23:12;1.50;;;1.50;;
10096;SDS011;5087;42.662;23.466;2022-10-16T13:25:48;1.50;;;1.50;;
10096;SDS011;5087;42.662;23.466;2022-10-16T13:28:30;1.60;;;1.60;;
10096;SDS011;5087;42.662;23.466;2022-10-16T13:31:00;1.50;;;1.50;;
10096;SDS011;5087;42.662;23.466;2022-10-16T13:33:30;1.60;;;1.60;;
10096;SDS011;5087;42.662;23.466;2022-10-16T13:36:00;1.50;;;1.50;;
10096;SDS011;5087;42.662;23.466;2022-10-16T13:38:29;1.63;;;1.63;;
10096;SDS011;5087;42.662;23.466;2022-10-16T13:40:59;1.40;;;1.40;;
10096;SDS011;5087;42.662;23.466;2022-10-16T13:43:27;1.50;;;1.50;;
10096;SDS011;5087;42.662;23.466;2022-10-16T13:45:59;1.80;;;1.80;;
10096;SDS011;5087;42.662;23.466;2022-10-16T13:48:28;1.60;;;1.60;;
10096;SDS011;5087;42.662;23.466;2022-10-16T13:51:02;1.60;;;1.60;;
10096;SDS011;5087;42.662;23.466;2022-10-16T13:53:33;1.67;;;1.67;;
10096;SDS011;5087;42.662;23.466;2022-10-16T13:56:02;1.70;;;1.70;;
10096;SDS011;5087;42.662;23.466;2022-10-16T13:58:31;1.40;;;1.40;;
10096;SDS011;5087;42.662;23.466;2022-10-16T14:00:59;1.57;;;1.57;;
10096;SDS011;5087;42.662;23.466;2022-10-16T14:03:28;1.50;;;1.50;;
10096;SDS011;5087;42.662;23.466;2022-10-16T14:05:58;1.67;;;1.67;;
10096;SDS011;5087;42.662;23.466;2022-10-16T14:08:28;1.50;;;1.50;;
10096;SDS011;5087;42.662;23.466;2022-10-16T14:10:59;1.90;;;1.90;;
10096;SDS011;5087;42.662;23.466;2022-10-16T14:13:31;1.60;;;1.60;;
10096;SDS011;5087;42.662;23.466;2022-10-16T14:16:06;1.70;;;1.70;;
10096;SDS011;5087;42.662;23.466;2022-10-16T14:18:35;1.60;;;1.60;;
10096;SDS011;5087;42.662;23.466;2022-10-16T14:21:05;1.50;;;1.50;;
10096;SDS011;5087;42.662;23.466;2022-10-16T14:23:34;1.60;;;1.60;;
10096;SDS011;5087;42.662;23.466;2022-10-16T14:26:14;1.40;;;1.40;;
10096;SDS011;5087;42.662;23.466;2022-10-16T14:28:43;1.53;;;1.50;;
10096;SDS011;5087;42.662;23.466;2022-10-16T14:33:57;1.50;;;1.50;;
10096;SDS011;5087;42.662;23.466;2022-10-16T14:36:25;1.43;;;1.43;;
10096;SDS011;5087;42.662;23.466;2022-10-16T14:39:03;1.50;;;1.50;;
10096;SDS011;5087;42.662;23.466;2022-10-16T14:41:35;1.40;;;1.40;;
10096;SDS011;5087;42.662;23.466;2022-10-16T14:44:10;1.70;;;1.70;;
10096;SDS011;5087;42.662;23.466;2022-10-16T14:46:38;1.40;;;1.40;;
10096;SDS011;5087;42.662;23.466;2022-10-16T14:49:13;1.60;;;1.60;;
10096;SDS011;5087;42.662;23.466;2022-10-16T14:51:43;1.60;;;1.60;;
10096;SDS011;5087;42.662;23.466;2022-10-16T14:54:11;1.67;;;1.67;;
10096;SDS011;5087;42.662;23.466;2022-10-16T14:56:45;1.53;;;1.53;;
10096;SDS011;5087;42.662;23.466;2022-10-16T14:59:16;1.40;;;1.40;;
10096;SDS011;5087;42.662;23.466;2022-10-16T15:01:46;1.40;;;1.40;;
10096;SDS011;5087;42.662;23.466;2022-10-16T15:04:14;1.40;;;1.40;;
10096;SDS011;5087;42.662;23.466;2022-10-16T15:06:41;1.80;;;1.80;;
10096;SDS011;5087;42.662;23.466;2022-10-16T15:09:08;1.60;;;1.60;;
10096;SDS011;5087;42.662;23.466;2022-10-16T15:11:36;1.70;;;1.70;;
10096;SDS011;5087;42.662;23.466;2022-10-16T15:14:05;1.60;;;1.60;;
10096;SDS011;5087;42.662;23.466;2022-10-16T15:16:32;1.70;;;1.70;;
10096;SDS011;5087;42.662;23.466;2022-10-16T15:18:59;1.70;;;1.70;;
10096;SDS011;5087;42.662;23.466;2022-10-16T15:21:27;1.90;;;1.90;;
10096;SDS011;5087;42.662;23.466;2022-10-16T15:24:04;1.80;;;1.80;;